createdAt,value
2019-03-26T00:00:22.500Z,3.98
2019-03-26T00:05:31.415Z,4.73
2019-03-26T00:10:40.273Z,3.82
2019-03-26T00:15:49.219Z,4.10
2019-03-26T00:20:58.123Z,4.55
2019-03-26T00:26:07.088Z,3.71
2019-03-26T00:31:15.959Z,3.61
2019-03-26T00:36:24.920Z,3.67
2019-03-26T00:41:33.855Z,3.74
2019-03-26T00:46:42.771Z,4.27
2019-03-26T00:51:51.653Z,3.88
2019-03-26T00:57:00.540Z,3.63
2019-03-26T01:02:09.423Z,3.54
2019-03-26T01:07:18.306Z,3.37
2019-03-26T01:12:27.178Z,4.05
2019-03-26T01:17:36.140Z,3.64
2019-03-26T01:22:45.450Z,3.63
2019-03-26T01:27:54.354Z,3.78
2019-03-26T01:33:03.279Z,4.23
2019-03-26T01:38:12.231Z,4.03
2019-03-26T01:43:21.203Z,3.45
2019-03-26T01:48:30.117Z,3.19
2019-03-26T01:53:39.020Z,3.64
2019-03-26T01:58:47.933Z,3.39
2019-03-26T02:03:56.780Z,3.74
2019-03-26T02:09:05.636Z,4.09
2019-03-26T02:14:14.496Z,4.41
2019-03-26T02:19:23.414Z,3.41
2019-03-26T02:24:32.267Z,3.97
2019-03-26T02:29:41.173Z,4.01
2019-03-26T02:34:50.064Z,4.05
2019-03-26T02:39:58.987Z,4.52
2019-03-26T02:45:07.836Z,3.40
2019-03-26T02:50:16.788Z,3.87
2019-03-26T02:55:25.613Z,3.76
2019-03-26T03:00:34.551Z,3.92
2019-03-26T03:05:43.400Z,3.91
2019-03-26T03:10:52.512Z,3.78
2019-03-26T03:16:01.424Z,3.81
2019-03-26T03:21:10.331Z,3.94
2019-03-26T03:26:19.225Z,2.92
2019-03-26T03:31:28.321Z,3.93
2019-03-26T03:36:37.040Z,3.98
2019-03-26T03:41:45.917Z,3.67
2019-03-26T03:46:54.819Z,3.76
2019-03-26T03:52:03.846Z,3.95
2019-03-26T03:57:12.680Z,4.57
2019-03-26T04:02:21.587Z,3.49
2019-03-26T04:07:30.444Z,3.69
2019-03-26T04:12:39.383Z,3.80
2019-03-26T04:17:48.282Z,3.93
2019-03-26T04:22:57.212Z,3.98
2019-03-26T04:28:06.139Z,3.93
2019-03-26T04:33:15.138Z,3.85
2019-03-26T04:38:24.136Z,3.58
2019-03-26T04:43:33.050Z,3.32
2019-03-26T04:48:41.908Z,3.72
2019-03-26T04:53:50.788Z,3.26
2019-03-26T04:58:59.690Z,3.63
2019-03-26T05:04:08.579Z,3.62
2019-03-26T05:09:17.490Z,3.64
2019-03-26T05:14:26.364Z,3.97
2019-03-26T05:19:35.236Z,4.49
2019-03-26T05:24:44.195Z,4.24
2019-03-26T05:29:53.095Z,4.49
2019-03-26T05:35:01.995Z,4.33
2019-03-26T05:40:10.849Z,4.10
2019-03-26T05:45:19.800Z,3.71
2019-03-26T05:50:28.703Z,3.96
2019-03-26T05:55:37.592Z,4.58
2019-03-26T06:00:46.515Z,3.93
2019-03-26T06:05:55.441Z,3.99
2019-03-26T06:11:04.372Z,4.49
2019-03-26T06:16:13.315Z,5.19
2019-03-26T06:21:22.192Z,3.74
2019-03-26T06:26:31.148Z,4.63
2019-03-26T06:31:40.062Z,4.33
2019-03-26T06:36:49.000Z,3.70
2019-03-26T06:41:57.872Z,4.39
2019-03-26T06:47:06.803Z,4.09
2019-03-26T06:52:15.677Z,3.77
2019-03-26T06:57:34.866Z,3.98
2019-03-26T07:02:33.027Z,4.01
2019-03-26T07:07:41.935Z,3.69
2019-03-26T07:12:50.832Z,3.82
2019-03-26T07:17:59.743Z,3.83
2019-03-26T07:23:08.625Z,3.87
2019-03-26T07:28:17.571Z,4.12
2019-03-26T07:33:26.454Z,3.96
2019-03-26T07:38:35.349Z,3.84
2019-03-26T07:43:44.219Z,3.76
2019-03-26T07:48:53.153Z,3.64
2019-03-26T07:54:02.020Z,3.43
2019-03-26T07:59:10.920Z,3.70
2019-03-26T08:04:19.796Z,3.14
2019-03-26T08:09:31.637Z,3.49
2019-03-26T08:14:37.179Z,3.54
2019-03-26T08:19:46.055Z,3.60
2019-03-26T08:24:54.939Z,3.21
2019-03-26T08:30:03.874Z,3.30
2019-03-26T08:35:12.779Z,3.35
2019-03-26T08:40:23.437Z,3.12
2019-03-26T08:45:30.068Z,3.36
2019-03-26T08:50:39.009Z,3.44
2019-03-26T08:55:47.885Z,3.24
2019-03-26T09:00:56.864Z,3.15
2019-03-26T09:06:05.779Z,3.02
2019-03-26T09:11:14.712Z,3.39
2019-03-26T09:16:23.595Z,3.05
2019-03-26T09:21:32.753Z,3.54
2019-03-26T09:26:41.343Z,3.33
2019-03-26T09:31:50.351Z,3.39
2019-03-26T09:36:59.231Z,3.51
2019-03-26T09:42:08.232Z,3.43
2019-03-26T09:47:17.076Z,3.24
2019-03-26T09:52:26.026Z,3.14
2019-03-26T09:57:34.896Z,2.94
2019-03-26T10:02:43.829Z,3.29
2019-03-26T10:07:52.724Z,3.17
2019-03-26T10:13:01.647Z,3.24
2019-03-26T10:18:10.519Z,2.86
2019-03-26T10:23:19.483Z,3.49
2019-03-26T10:28:28.379Z,3.02
2019-03-26T10:33:37.325Z,3.11
2019-03-26T10:38:46.215Z,3.45
2019-03-26T10:43:55.157Z,3.54
2019-03-26T10:49:03.999Z,3.29
2019-03-26T10:54:12.919Z,3.45
2019-03-26T10:59:21.795Z,3.18
2019-03-26T11:04:30.695Z,3.17
2019-03-26T11:09:39.567Z,3.75
2019-03-26T11:14:48.476Z,3.23
2019-03-26T11:19:57.363Z,3.32
2019-03-26T11:25:06.259Z,3.10
2019-03-26T11:30:15.144Z,3.24
2019-03-26T11:35:24.068Z,3.92
2019-03-26T11:40:32.932Z,3.69
2019-03-26T11:45:41.852Z,3.31
2019-03-26T11:50:50.720Z,3.30
2019-03-26T11:55:59.637Z,3.66
2019-03-26T12:01:08.493Z,3.32
2019-03-26T12:06:17.397Z,3.45
2019-03-26T12:11:26.296Z,3.33
2019-03-26T12:16:35.211Z,3.41
2019-03-26T12:21:44.121Z,3.97
2019-03-26T12:26:53.046Z,3.59
2019-03-26T12:32:01.884Z,3.39
2019-03-26T12:37:10.813Z,3.75
2019-03-26T12:42:19.688Z,3.71
2019-03-26T12:47:28.647Z,3.37
2019-03-26T12:52:37.607Z,3.45
2019-03-26T12:57:46.471Z,3.61
2019-03-26T13:02:55.324Z,3.66
2019-03-26T13:08:04.339Z,3.73
2019-03-26T13:13:13.240Z,4.14
2019-03-26T13:18:22.148Z,3.52
2019-03-26T13:23:31.040Z,3.52
2019-03-26T13:28:39.994Z,3.73
2019-03-26T13:33:48.893Z,3.53
2019-03-26T13:38:57.791Z,3.22
2019-03-26T13:44:06.655Z,3.81
2019-03-26T13:49:15.603Z,3.34
2019-03-26T13:54:24.489Z,4.27
2019-03-26T13:59:33.439Z,3.83
2019-03-26T14:04:42.274Z,4.05
2019-03-26T14:09:51.216Z,3.94
2019-03-26T14:15:00.262Z,4.08
2019-03-26T14:20:09.051Z,4.37
2019-03-26T14:25:17.959Z,4.37
2019-03-26T14:30:26.867Z,4.48
2019-03-26T14:35:35.723Z,4.32
2019-03-26T14:40:54.497Z,4.69
2019-03-26T14:45:53.019Z,4.71
2019-03-26T14:51:01.896Z,4.85
2019-03-26T14:56:10.780Z,4.38
2019-03-26T15:01:19.719Z,4.76
2019-03-26T15:06:28.569Z,4.26
2019-03-26T15:11:37.499Z,4.15
2019-03-26T15:16:46.365Z,4.33
2019-03-26T15:21:55.326Z,4.05
2019-03-26T15:27:04.152Z,4.15
2019-03-26T15:32:13.065Z,4.35
2019-03-26T15:37:21.958Z,4.05
2019-03-26T15:42:30.829Z,3.94
2019-03-26T15:47:39.712Z,4.03
2019-03-26T15:52:48.653Z,4.37
2019-03-26T15:57:59.932Z,3.97
2019-03-26T16:03:06.007Z,5.42
2019-03-26T16:08:14.848Z,5.09
2019-03-26T16:13:23.772Z,4.64
2019-03-26T16:18:32.609Z,4.41
2019-03-26T16:23:41.515Z,4.50
2019-03-26T16:28:50.411Z,4.00
2019-03-26T16:33:59.326Z,4.42
2019-03-26T16:39:08.407Z,5.69
2019-03-26T16:44:17.372Z,5.28
2019-03-26T16:49:26.343Z,5.05
2019-03-26T16:54:35.258Z,4.86
2019-03-26T16:59:44.115Z,5.18
2019-03-26T17:04:53.065Z,5.27
2019-03-26T17:10:01.941Z,5.37
2019-03-26T17:15:10.805Z,6.00
2019-03-26T17:20:19.687Z,6.11
2019-03-26T17:25:28.628Z,6.51
2019-03-26T17:30:37.592Z,6.68
2019-03-26T17:35:46.512Z,6.44
2019-03-26T17:40:55.393Z,6.19
2019-03-26T17:46:04.392Z,6.13
2019-03-26T17:51:13.231Z,6.78
2019-03-26T17:56:22.140Z,5.71
2019-03-26T18:01:30.992Z,5.87
2019-03-26T18:06:39.908Z,5.60
2019-03-26T18:11:48.750Z,6.09
2019-03-26T18:16:57.639Z,6.19
2019-03-26T18:22:06.533Z,6.18
2019-03-26T18:27:15.583Z,6.23
2019-03-26T18:32:24.465Z,6.12
2019-03-26T18:37:33.387Z,6.72
2019-03-26T18:42:44.162Z,6.46
2019-03-26T18:47:50.827Z,5.70
2019-03-26T18:52:59.727Z,5.99
2019-03-26T18:58:08.842Z,6.10
2019-03-26T19:03:17.708Z,5.81
2019-03-26T19:08:26.609Z,4.88
2019-03-26T19:13:35.560Z,4.21
2019-03-26T19:18:44.478Z,4.68
2019-03-26T19:24:03.370Z,4.57
2019-03-26T19:29:01.810Z,4.26
2019-03-26T19:34:10.675Z,4.65
2019-03-26T19:39:19.646Z,4.67
2019-03-26T19:44:28.507Z,4.93
2019-03-26T19:49:37.406Z,4.49
2019-03-26T19:54:46.251Z,4.31
2019-03-26T19:59:55.138Z,4.73
2019-03-26T20:05:04.005Z,4.42
2019-03-26T20:10:13.004Z,4.46
2019-03-26T20:15:21.903Z,4.36
2019-03-26T20:20:30.851Z,4.40
2019-03-26T20:25:39.718Z,4.50
2019-03-26T20:30:48.770Z,3.73
2019-03-26T20:35:57.647Z,4.49
2019-03-26T20:41:06.584Z,4.51
2019-03-26T20:46:15.465Z,3.80
2019-03-26T20:51:24.415Z,4.56
2019-03-26T20:56:33.356Z,4.08
2019-03-26T21:01:45.301Z,4.35
2019-03-26T21:06:50.623Z,4.17
2019-03-26T21:11:59.539Z,3.88
2019-03-26T21:17:08.423Z,3.76
2019-03-26T21:22:17.333Z,3.85
2019-03-26T21:27:26.291Z,4.01
2019-03-26T21:32:35.190Z,3.94
2019-03-26T21:37:44.063Z,3.73
2019-03-26T21:42:52.969Z,3.71
2019-03-26T21:48:01.852Z,4.45
2019-03-26T21:53:10.728Z,4.38
2019-03-26T21:58:19.606Z,4.00
2019-03-26T22:03:28.525Z,4.26
2019-03-26T22:08:37.387Z,4.58
2019-03-26T22:13:46.256Z,4.95
2019-03-26T22:18:55.139Z,4.54
2019-03-26T22:24:04.112Z,4.60
2019-03-26T22:29:13.000Z,4.24
2019-03-26T22:34:21.931Z,4.38
2019-03-26T22:39:30.791Z,4.67
2019-03-26T22:44:39.688Z,3.99
2019-03-26T22:49:48.591Z,4.16
2019-03-26T22:54:57.504Z,4.58
2019-03-26T23:00:06.459Z,4.18
2019-03-26T23:05:15.507Z,3.83
2019-03-26T23:10:24.395Z,3.19
2019-03-26T23:15:33.320Z,3.78
2019-03-26T23:20:42.228Z,4.05
2019-03-26T23:25:51.154Z,3.71
2019-03-26T23:31:00.073Z,3.67
2019-03-26T23:36:09.080Z,4.09
2019-03-26T23:41:17.954Z,4.19
2019-03-26T23:46:26.848Z,3.61
2019-03-26T23:51:35.752Z,3.86
2019-03-26T23:56:44.622Z,3.75
